Three Mile Bay, New York
Current Conditions -  °F | °C
As of 2:56 AM on Friday 24 Oct 2014 (Local Time) from KART Reporting Station
Overcast Overcast  
Wind Chill: 47°   Ceiling: 10000
Heat Index: 47°   Visibility: 10mi
Dew Point: 40°   Wind: 3mph
Humidity: 77%   Direction: 350°N
Pressure: 29.94"   Gusts: NA
Location:  44.08°N, 76.2°W
Report Text: KART 240656Z AUTO 35003KT 10SM OVC100 08/04 A2994 RMK AO2 SLP140 T00830044
Loading
Personal Weather Stations






























Interactive Weather Map
Tropical Storm Tracking
New forecast layout! Learn more

10-Day Weather Forecast

Advertisements
Track Severe Weather on mobile